sensor_id;sensor_type;location;lat;lon;timestamp;temperature;humidity
59075;DHT22;44860;53.020;6.738;2023-12-20T00:01:00;5.80;99.90
59075;DHT22;44860;53.020;6.738;2023-12-20T00:03:25;5.80;99.90
59075;DHT22;44860;53.020;6.738;2023-12-20T00:05:51;5.90;99.90
59075;DHT22;44860;53.020;6.738;2023-12-20T00:08:17;5.90;99.90
59075;DHT22;44860;53.020;6.738;2023-12-20T00:10:43;5.90;99.90
59075;DHT22;44860;53.020;6.738;2023-12-20T00:13:09;5.90;99.90
59075;DHT22;44860;53.020;6.738;2023-12-20T00:15:35;5.90;99.90
59075;DHT22;44860;53.020;6.738;2023-12-20T00:18:01;5.90;99.90
59075;DHT22;44860;53.020;6.738;2023-12-20T00:20:27;5.90;99.90
59075;DHT22;44860;53.020;6.738;2023-12-20T00:23:01;5.90;99.90
59075;DHT22;44860;53.020;6.738;2023-12-20T00:25:27;5.90;99.90
59075;DHT22;44860;53.020;6.738;2023-12-20T00:27:53;5.90;99.90
59075;DHT22;44860;53.020;6.738;2023-12-20T00:30:19;5.90;99.90
59075;DHT22;44860;53.020;6.738;2023-12-20T00:32:44;5.90;99.90
59075;DHT22;44860;53.020;6.738;2023-12-20T00:35:18;5.80;99.90
59075;DHT22;44860;53.020;6.738;2023-12-20T00:37:44;5.90;99.90
59075;DHT22;44860;53.020;6.738;2023-12-20T00:40:10;5.80;99.90
59075;DHT22;44860;53.020;6.738;2023-12-20T00:42:36;5.80;99.90
59075;DHT22;44860;53.020;6.738;2023-12-20T00:45:02;5.80;99.90
59075;DHT22;44860;53.020;6.738;2023-12-20T00:47:33;5.80;99.90
59075;DHT22;44860;53.020;6.738;2023-12-20T00:49:58;5.80;99.90
59075;DHT22;44860;53.020;6.738;2023-12-20T00:52:24;5.90;99.90
59075;DHT22;44860;53.020;6.738;2023-12-20T00:54:50;5.90;99.90
59075;DHT22;44860;53.020;6.738;2023-12-20T00:57:16;5.90;99.90
59075;DHT22;44860;53.020;6.738;2023-12-20T00:59:41;5.90;99.90
59075;DHT22;44860;53.020;6.738;2023-12-20T01:02:07;5.90;99.90
59075;DHT22;44860;53.020;6.738;2023-12-20T01:04:34;6.00;99.90
59075;DHT22;44860;53.020;6.738;2023-12-20T01:07:00;6.00;99.90
59075;DHT22;44860;53.020;6.738;2023-12-20T01:09:25;6.00;99.90
59075;DHT22;44860;53.020;6.738;2023-12-20T01:11:54;6.00;99.90
59075;DHT22;44860;53.020;6.738;2023-12-20T01:14:19;6.00;99.90
59075;DHT22;44860;53.020;6.738;2023-12-20T01:16:45;6.00;99.90
59075;DHT22;44860;53.020;6.738;2023-12-20T01:19:11;6.00;99.90
59075;DHT22;44860;53.020;6.738;2023-12-20T01:21:37;6.00;99.90
59075;DHT22;44860;53.020;6.738;2023-12-20T01:24:02;5.90;99.90
59075;DHT22;44860;53.020;6.738;2023-12-20T01:26:28;5.90;99.90
59075;DHT22;44860;53.020;6.738;2023-12-20T01:28:54;6.00;99.90
59075;DHT22;44860;53.020;6.738;2023-12-20T01:31:19;5.90;99.90
59075;DHT22;44860;53.020;6.738;2023-12-20T01:33:45;6.00;99.90
59075;DHT22;44860;53.020;6.738;2023-12-20T01:36:11;5.90;99.90
59075;DHT22;44860;53.020;6.738;2023-12-20T01:38:37;6.00;99.90
59075;DHT22;44860;53.020;6.738;2023-12-20T01:41:03;6.00;99.90
59075;DHT22;44860;53.020;6.738;2023-12-20T01:43:29;5.90;99.90
59075;DHT22;44860;53.020;6.738;2023-12-20T01:45:56;5.90;99.90
59075;DHT22;44860;53.020;6.738;2023-12-20T01:48:23;6.00;99.90
59075;DHT22;44860;53.020;6.738;2023-12-20T01:50:49;6.00;99.90
59075;DHT22;44860;53.020;6.738;2023-12-20T01:53:15;6.00;99.90
59075;DHT22;44860;53.020;6.738;2023-12-20T01:55:42;6.00;99.90
59075;DHT22;44860;53.020;6.738;2023-12-20T01:58:08;6.00;99.90
59075;DHT22;44860;53.020;6.738;2023-12-20T02:00:36;6.00;99.90
59075;DHT22;44860;53.020;6.738;2023-12-20T02:03:03;6.00;99.90
59075;DHT22;44860;53.020;6.738;2023-12-20T02:05:33;6.00;99.90
59075;DHT22;44860;53.020;6.738;2023-12-20T02:07:59;6.00;99.90
59075;DHT22;44860;53.020;6.738;2023-12-20T02:10:25;6.00;99.90
59075;DHT22;44860;53.020;6.738;2023-12-20T02:12:51;6.00;99.90
59075;DHT22;44860;53.020;6.738;2023-12-20T02:15:16;6.00;99.90
59075;DHT22;44860;53.020;6.738;2023-12-20T02:17:42;6.00;99.90
59075;DHT22;44860;53.020;6.738;2023-12-20T02:20:09;6.00;99.90
59075;DHT22;44860;53.020;6.738;2023-12-20T02:22:35;6.00;99.90
59075;DHT22;44860;53.020;6.738;2023-12-20T02:25:00;6.00;99.90
59075;DHT22;44860;53.020;6.738;2023-12-20T02:27:27;6.00;99.90
59075;DHT22;44860;53.020;6.738;2023-12-20T02:29:54;6.00;99.90
59075;DHT22;44860;53.020;6.738;2023-12-20T02:32:20;6.00;99.90
59075;DHT22;44860;53.020;6.738;2023-12-20T02:34:48;6.00;99.90
59075;DHT22;44860;53.020;6.738;2023-12-20T02:37:14;6.00;99.90
59075;DHT22;44860;53.020;6.738;2023-12-20T02:39:39;6.00;99.90
59075;DHT22;44860;53.020;6.738;2023-12-20T02:42:05;6.00;99.90
59075;DHT22;44860;53.020;6.738;2023-12-20T02:44:31;6.00;99.90
59075;DHT22;44860;53.020;6.738;2023-12-20T02:46:56;6.00;99.90
59075;DHT22;44860;53.020;6.738;2023-12-20T02:49:22;6.00;99.90
59075;DHT22;44860;53.020;6.738;2023-12-20T02:51:48;6.00;99.90
59075;DHT22;44860;53.020;6.738;2023-12-20T02:54:13;6.00;99.90
59075;DHT22;44860;53.020;6.738;2023-12-20T02:56:39;6.00;99.90
59075;DHT22;44860;53.020;6.738;2023-12-20T02:59:05;6.00;99.90
59075;DHT22;44860;53.020;6.738;2023-12-20T03:01:31;6.00;99.90
59075;DHT22;44860;53.020;6.738;2023-12-20T03:03:57;6.10;99.90
59075;DHT22;44860;53.020;6.738;2023-12-20T03:06:23;6.10;99.90
59075;DHT22;44860;53.020;6.738;2023-12-20T03:08:48;6.10;99.90
59075;DHT22;44860;53.020;6.738;2023-12-20T03:11:14;6.10;99.90
59075;DHT22;44860;53.020;6.738;2023-12-20T03:13:40;6.10;99.90
59075;DHT22;44860;53.020;6.738;2023-12-20T03:16:09;6.20;99.90
59075;DHT22;44860;53.020;6.738;2023-12-20T03:18:35;6.20;99.90
59075;DHT22;44860;53.020;6.738;2023-12-20T03:21:01;6.20;99.90
59075;DHT22;44860;53.020;6.738;2023-12-20T03:23:27;6.20;99.90
59075;DHT22;44860;53.020;6.738;2023-12-20T03:25:52;6.20;99.90
59075;DHT22;44860;53.020;6.738;2023-12-20T03:28:19;6.20;99.90
59075;DHT22;44860;53.020;6.738;2023-12-20T03:30:45;6.20;99.90
59075;DHT22;44860;53.020;6.738;2023-12-20T03:33:10;6.20;99.90
59075;DHT22;44860;53.020;6.738;2023-12-20T03:35:36;6.20;99.90
59075;DHT22;44860;53.020;6.738;2023-12-20T03:38:02;6.20;99.90
59075;DHT22;44860;53.020;6.738;2023-12-20T03:40:28;6.20;99.90
59075;DHT22;44860;53.020;6.738;2023-12-20T03:42:53;6.20;99.90
59075;DHT22;44860;53.020;6.738;2023-12-20T03:45:19;6.20;99.90
59075;DHT22;44860;53.020;6.738;2023-12-20T03:47:45;6.20;99.90
59075;DHT22;44860;53.020;6.738;2023-12-20T03:50:10;6.20;99.90
59075;DHT22;44860;53.020;6.738;2023-12-20T03:52:36;6.20;99.90
59075;DHT22;44860;53.020;6.738;2023-12-20T03:55:02;6.20;99.90
59075;DHT22;44860;53.020;6.738;2023-12-20T03:57:27;6.20;99.90
59075;DHT22;44860;53.020;6.738;2023-12-20T03:59:53;6.20;99.90
59075;DHT22;44860;53.020;6.738;2023-12-20T04:02:19;6.30;99.90
59075;DHT22;44860;53.020;6.738;2023-12-20T04:04:45;6.30;99.90
59075;DHT22;44860;53.020;6.738;2023-12-20T04:07:10;6.30;99.90
59075;DHT22;44860;53.020;6.738;2023-12-20T04:09:36;6.20;99.90
59075;DHT22;44860;53.020;6.738;2023-12-20T04:12:01;6.30;99.90
59075;DHT22;44860;53.020;6.738;2023-12-20T04:14:27;6.30;99.90
59075;DHT22;44860;53.020;6.738;2023-12-20T04:16:53;6.30;99.90
59075;DHT22;44860;53.020;6.738;2023-12-20T04:19:19;6.30;99.90
59075;DHT22;44860;53.020;6.738;2023-12-20T04:21:45;6.30;99.90
59075;DHT22;44860;53.020;6.738;2023-12-20T04:24:10;6.40;99.90
59075;DHT22;44860;53.020;6.738;2023-12-20T04:26:36;6.40;99.90
59075;DHT22;44860;53.020;6.738;2023-12-20T04:29:02;6.40;99.90
59075;DHT22;44860;53.020;6.738;2023-12-20T04:31:27;6.40;99.90
59075;DHT22;44860;53.020;6.738;2023-12-20T04:33:53;6.50;99.90
59075;DHT22;44860;53.020;6.738;2023-12-20T04:36:19;6.50;99.90
59075;DHT22;44860;53.020;6.738;2023-12-20T04:38:44;6.50;99.90
59075;DHT22;44860;53.020;6.738;2023-12-20T04:41:10;6.50;99.90
59075;DHT22;44860;53.020;6.738;2023-12-20T04:43:36;6.50;99.90
59075;DHT22;44860;53.020;6.738;2023-12-20T04:46:01;6.60;99.90
59075;DHT22;44860;53.020;6.738;2023-12-20T04:48:27;6.60;99.90
59075;DHT22;44860;53.020;6.738;2023-12-20T04:50:53;6.60;99.90
59075;DHT22;44860;53.020;6.738;2023-12-20T04:53:19;6.60;99.90
59075;DHT22;44860;53.020;6.738;2023-12-20T04:55:44;6.60;99.90
59075;DHT22;44860;53.020;6.738;2023-12-20T04:58:10;6.60;99.90
59075;DHT22;44860;53.020;6.738;2023-12-20T05:00:35;6.60;99.90
59075;DHT22;44860;53.020;6.738;2023-12-20T05:03:01;6.60;99.90
59075;DHT22;44860;53.020;6.738;2023-12-20T05:05:27;6.60;99.90
59075;DHT22;44860;53.020;6.738;2023-12-20T05:07:52;6.70;99.90
59075;DHT22;44860;53.020;6.738;2023-12-20T05:10:18;6.70;99.90
59075;DHT22;44860;53.020;6.738;2023-12-20T05:12:44;6.70;99.90
59075;DHT22;44860;53.020;6.738;2023-12-20T05:15:09;6.70;99.90
59075;DHT22;44860;53.020;6.738;2023-12-20T05:17:35;6.80;99.90
59075;DHT22;44860;53.020;6.738;2023-12-20T05:20:01;6.80;99.90
59075;DHT22;44860;53.020;6.738;2023-12-20T05:22:26;6.80;99.90
59075;DHT22;44860;53.020;6.738;2023-12-20T05:24:53;6.80;99.90
59075;DHT22;44860;53.020;6.738;2023-12-20T05:27:18;6.80;99.90
59075;DHT22;44860;53.020;6.738;2023-12-20T05:29:44;6.80;99.90
59075;DHT22;44860;53.020;6.738;2023-12-20T05:32:10;6.90;99.90
59075;DHT22;44860;53.020;6.738;2023-12-20T05:34:35;6.90;99.90
59075;DHT22;44860;53.020;6.738;2023-12-20T05:37:02;6.90;99.90
59075;DHT22;44860;53.020;6.738;2023-12-20T05:39:27;6.90;99.90
59075;DHT22;44860;53.020;6.738;2023-12-20T05:41:53;7.00;99.90
59075;DHT22;44860;53.020;6.738;2023-12-20T05:44:19;7.00;99.90
59075;DHT22;44860;53.020;6.738;2023-12-20T05:46:44;7.00;99.90
59075;DHT22;44860;53.020;6.738;2023-12-20T05:49:10;7.00;99.90
59075;DHT22;44860;53.020;6.738;2023-12-20T05:51:36;7.00;99.90
59075;DHT22;44860;53.020;6.738;2023-12-20T05:54:02;7.00;99.90
59075;DHT22;44860;53.020;6.738;2023-12-20T05:56:27;7.00;99.90
59075;DHT22;44860;53.020;6.738;2023-12-20T05:58:53;7.00;99.90
59075;DHT22;44860;53.020;6.738;2023-12-20T06:01:19;7.10;99.90
59075;DHT22;44860;53.020;6.738;2023-12-20T06:03:44;7.00;99.90
59075;DHT22;44860;53.020;6.738;2023-12-20T06:06:11;7.10;99.90
59075;DHT22;44860;53.020;6.738;2023-12-20T06:08:38;7.10;99.90
59075;DHT22;44860;53.020;6.738;2023-12-20T06:11:04;7.10;99.90
59075;DHT22;44860;53.020;6.738;2023-12-20T06:13:31;7.10;99.90
59075;DHT22;44860;53.020;6.738;2023-12-20T06:15:56;7.10;99.90
59075;DHT22;44860;53.020;6.738;2023-12-20T06:18:22;7.20;99.90
59075;DHT22;44860;53.020;6.738;2023-12-20T06:20:48;7.20;99.90
59075;DHT22;44860;53.020;6.738;2023-12-20T06:23:14;7.20;99.90
59075;DHT22;44860;53.020;6.738;2023-12-20T06:25:39;7.20;99.90
59075;DHT22;44860;53.020;6.738;2023-12-20T06:28:05;7.20;99.90
59075;DHT22;44860;53.020;6.738;2023-12-20T06:30:31;7.30;99.90
59075;DHT22;44860;53.020;6.738;2023-12-20T06:32:58;7.30;99.90
59075;DHT22;44860;53.020;6.738;2023-12-20T06:35:24;7.30;99.90
59075;DHT22;44860;53.020;6.738;2023-12-20T06:37:50;7.30;99.90
59075;DHT22;44860;53.020;6.738;2023-12-20T06:40:16;7.30;99.90
59075;DHT22;44860;53.020;6.738;2023-12-20T06:42:42;7.30;99.90
59075;DHT22;44860;53.020;6.738;2023-12-20T06:45:08;7.30;99.90
59075;DHT22;44860;53.020;6.738;2023-12-20T06:47:34;7.30;99.90
59075;DHT22;44860;53.020;6.738;2023-12-20T06:50:00;7.30;99.90
59075;DHT22;44860;53.020;6.738;2023-12-20T06:52:26;7.30;99.90
59075;DHT22;44860;53.020;6.738;2023-12-20T06:54:52;7.30;99.90
59075;DHT22;44860;53.020;6.738;2023-12-20T06:57:17;7.30;99.90
59075;DHT22;44860;53.020;6.738;2023-12-20T06:59:43;7.30;99.90
59075;DHT22;44860;53.020;6.738;2023-12-20T07:02:09;7.30;99.90
59075;DHT22;44860;53.020;6.738;2023-12-20T07:04:42;7.30;99.90
59075;DHT22;44860;53.020;6.738;2023-12-20T07:07:08;7.30;99.90
59075;DHT22;44860;53.020;6.738;2023-12-20T07:09:33;7.30;99.90
59075;DHT22;44860;53.020;6.738;2023-12-20T07:11:59;7.30;99.90
59075;DHT22;44860;53.020;6.738;2023-12-20T07:14:25;7.30;99.90
59075;DHT22;44860;53.020;6.738;2023-12-20T07:16:51;7.30;99.90
59075;DHT22;44860;53.020;6.738;2023-12-20T07:19:16;7.30;99.90
59075;DHT22;44860;53.020;6.738;2023-12-20T07:21:43;7.30;99.90
59075;DHT22;44860;53.020;6.738;2023-12-20T07:24:08;7.30;99.90
59075;DHT22;44860;53.020;6.738;2023-12-20T07:26:35;7.40;99.90
59075;DHT22;44860;53.020;6.738;2023-12-20T07:29:00;7.40;99.90
59075;DHT22;44860;53.020;6.738;2023-12-20T07:31:26;7.40;99.90
59075;DHT22;44860;53.020;6.738;2023-12-20T07:33:52;7.40;99.90
59075;DHT22;44860;53.020;6.738;2023-12-20T07:36:18;7.40;99.90
59075;DHT22;44860;53.020;6.738;2023-12-20T07:38:44;7.40;99.90
59075;DHT22;44860;53.020;6.738;2023-12-20T07:41:10;7.50;99.90
59075;DHT22;44860;53.020;6.738;2023-12-20T07:43:36;7.50;99.90
59075;DHT22;44860;53.020;6.738;2023-12-20T07:46:06;7.50;99.90
59075;DHT22;44860;53.020;6.738;2023-12-20T07:48:33;7.50;99.90
59075;DHT22;44860;53.020;6.738;2023-12-20T07:50:58;7.50;99.90
59075;DHT22;44860;53.020;6.738;2023-12-20T07:53:24;7.50;99.90
59075;DHT22;44860;53.020;6.738;2023-12-20T07:55:50;7.60;99.90
59075;DHT22;44860;53.020;6.738;2023-12-20T07:58:17;7.60;99.90
59075;DHT22;44860;53.020;6.738;2023-12-20T08:00:43;7.60;99.90
59075;DHT22;44860;53.020;6.738;2023-12-20T08:03:09;7.60;99.90
59075;DHT22;44860;53.020;6.738;2023-12-20T08:05:35;7.60;99.90
59075;DHT22;44860;53.020;6.738;2023-12-20T08:08:00;7.60;99.90
59075;DHT22;44860;53.020;6.738;2023-12-20T08:10:26;7.60;99.90
59075;DHT22;44860;53.020;6.738;2023-12-20T08:12:55;7.60;99.90
59075;DHT22;44860;53.020;6.738;2023-12-20T08:15:20;7.70;99.90
59075;DHT22;44860;53.020;6.738;2023-12-20T08:17:46;7.70;99.90
59075;DHT22;44860;53.020;6.738;2023-12-20T08:20:12;7.70;99.90
59075;DHT22;44860;53.020;6.738;2023-12-20T08:22:37;7.70;99.90
59075;DHT22;44860;53.020;6.738;2023-12-20T08:25:03;7.70;99.90
59075;DHT22;44860;53.020;6.738;2023-12-20T08:27:29;7.70;99.90
59075;DHT22;44860;53.020;6.738;2023-12-20T08:29:56;7.80;99.90
59075;DHT22;44860;53.020;6.738;2023-12-20T08:32:24;7.80;99.90
59075;DHT22;44860;53.020;6.738;2023-12-20T08:34:50;7.80;99.90
59075;DHT22;44860;53.020;6.738;2023-12-20T08:37:16;7.80;99.90
59075;DHT22;44860;53.020;6.738;2023-12-20T08:39:41;7.80;99.90
59075;DHT22;44860;53.020;6.738;2023-12-20T08:42:09;7.90;99.90
59075;DHT22;44860;53.020;6.738;2023-12-20T08:44:34;7.80;99.90
59075;DHT22;44860;53.020;6.738;2023-12-20T08:47:00;7.90;99.90
59075;DHT22;44860;53.020;6.738;2023-12-20T08:49:25;7.90;99.90
59075;DHT22;44860;53.020;6.738;2023-12-20T08:51:51;7.80;99.90
59075;DHT22;44860;53.020;6.738;2023-12-20T08:54:20;7.80;99.90
59075;DHT22;44860;53.020;6.738;2023-12-20T08:56:45;7.80;99.90
59075;DHT22;44860;53.020;6.738;2023-12-20T08:59:11;7.70;99.90
59075;DHT22;44860;53.020;6.738;2023-12-20T09:01:37;7.70;99.90
59075;DHT22;44860;53.020;6.738;2023-12-20T09:04:03;7.60;99.90
59075;DHT22;44860;53.020;6.738;2023-12-20T09:06:29;7.60;99.90
59075;DHT22;44860;53.020;6.738;2023-12-20T09:08:55;7.60;99.90
59075;DHT22;44860;53.020;6.738;2023-12-20T09:11:20;7.60;99.90
59075;DHT22;44860;53.020;6.738;2023-12-20T09:14:16;7.60;99.90
59075;DHT22;44860;53.020;6.738;2023-12-20T09:16:42;7.60;99.90
59075;DHT22;44860;53.020;6.738;2023-12-20T09:19:07;7.70;99.90
59075;DHT22;44860;53.020;6.738;2023-12-20T09:24:53;7.80;99.90
59075;DHT22;44860;53.020;6.738;2023-12-20T09:27:19;7.90;99.90
59075;DHT22;44860;53.020;6.738;2023-12-20T09:29:45;7.90;99.90
59075;DHT22;44860;53.020;6.738;2023-12-20T09:32:10;7.70;99.90
59075;DHT22;44860;53.020;6.738;2023-12-20T09:34:36;7.50;99.90
59075;DHT22;44860;53.020;6.738;2023-12-20T09:37:05;7.30;99.90
59075;DHT22;44860;53.020;6.738;2023-12-20T09:39:33;7.10;99.90
59075;DHT22;44860;53.020;6.738;2023-12-20T09:42:03;6.90;99.90
59075;DHT22;44860;53.020;6.738;2023-12-20T09:44:31;6.80;99.90
59075;DHT22;44860;53.020;6.738;2023-12-20T09:46:57;6.80;99.90
59075;DHT22;44860;53.020;6.738;2023-12-20T09:49:23;6.70;99.90
59075;DHT22;44860;53.020;6.738;2023-12-20T09:51:53;6.70;99.90
59075;DHT22;44860;53.020;6.738;2023-12-20T09:54:22;6.60;99.90
59075;DHT22;44860;53.020;6.738;2023-12-20T09:56:49;6.60;99.90
59075;DHT22;44860;53.020;6.738;2023-12-20T09:59:15;6.50;99.90
59075;DHT22;44860;53.020;6.738;2023-12-20T10:01:42;6.50;99.90
59075;DHT22;44860;53.020;6.738;2023-12-20T10:04:10;6.50;99.90
59075;DHT22;44860;53.020;6.738;2023-12-20T10:06:44;6.50;99.90
59075;DHT22;44860;53.020;6.738;2023-12-20T10:09:11;6.50;99.90
59075;DHT22;44860;53.020;6.738;2023-12-20T10:11:38;6.50;99.90
59075;DHT22;44860;53.020;6.738;2023-12-20T10:14:10;6.50;99.90
59075;DHT22;44860;53.020;6.738;2023-12-20T10:17:01;6.50;99.90
59075;DHT22;44860;53.020;6.738;2023-12-20T10:19:42;6.50;99.90
59075;DHT22;44860;53.020;6.738;2023-12-20T10:22:21;6.50;99.90
59075;DHT22;44860;53.020;6.738;2023-12-20T10:24:49;6.50;99.90
59075;DHT22;44860;53.020;6.738;2023-12-20T10:27:18;6.50;99.90
59075;DHT22;44860;53.020;6.738;2023-12-20T10:29:45;6.50;99.90
59075;DHT22;44860;53.020;6.738;2023-12-20T10:35:01;6.50;99.90
59075;DHT22;44860;53.020;6.738;2023-12-20T10:37:39;6.50;99.90
59075;DHT22;44860;53.020;6.738;2023-12-20T10:40:06;6.50;99.90
59075;DHT22;44860;53.020;6.738;2023-12-20T10:42:32;6.50;99.90
59075;DHT22;44860;53.020;6.738;2023-12-20T10:45:00;6.50;99.90
59075;DHT22;44860;53.020;6.738;2023-12-20T10:47:26;6.50;99.90
59075;DHT22;44860;53.020;6.738;2023-12-20T10:49:54;6.50;99.90
59075;DHT22;44860;53.020;6.738;2023-12-20T10:52:23;6.50;99.90
59075;DHT22;44860;53.020;6.738;2023-12-20T10:54:49;6.50;99.90
59075;DHT22;44860;53.020;6.738;2023-12-20T10:57:16;6.50;99.90
59075;DHT22;44860;53.020;6.738;2023-12-20T10:59:45;6.60;99.90
59075;DHT22;44860;53.020;6.738;2023-12-20T11:02:13;6.60;99.90
59075;DHT22;44860;53.020;6.738;2023-12-20T11:07:33;6.70;99.90
59075;DHT22;44860;53.020;6.738;2023-12-20T11:10:27;6.70;99.90
59075;DHT22;44860;53.020;6.738;2023-12-20T11:12:58;6.70;99.90
59075;DHT22;44860;53.020;6.738;2023-12-20T11:15:27;6.70;99.90
59075;DHT22;44860;53.020;6.738;2023-12-20T11:17:57;6.70;99.90
59075;DHT22;44860;53.020;6.738;2023-12-20T11:20:24;6.80;99.90
59075;DHT22;44860;53.020;6.738;2023-12-20T11:23:00;6.80;99.90
59075;DHT22;44860;53.020;6.738;2023-12-20T11:25:26;6.80;99.90
59075;DHT22;44860;53.020;6.738;2023-12-20T11:31:01;6.90;99.90
59075;DHT22;44860;53.020;6.738;2023-12-20T11:33:30;6.90;99.90
59075;DHT22;44860;53.020;6.738;2023-12-20T11:35:57;6.90;99.90
59075;DHT22;44860;53.020;6.738;2023-12-20T11:38:23;6.90;99.90
59075;DHT22;44860;53.020;6.738;2023-12-20T11:40:49;6.90;99.90
59075;DHT22;44860;53.020;6.738;2023-12-20T11:46:07;7.00;99.90
59075;DHT22;44860;53.020;6.738;2023-12-20T11:48:39;7.00;99.90
59075;DHT22;44860;53.020;6.738;2023-12-20T11:51:12;7.00;99.90
59075;DHT22;44860;53.020;6.738;2023-12-20T11:53:39;7.10;99.90
59075;DHT22;44860;53.020;6.738;2023-12-20T11:56:08;7.10;99.90
59075;DHT22;44860;53.020;6.738;2023-12-20T11:58:34;7.10;99.90
59075;DHT22;44860;53.020;6.738;2023-12-20T12:01:00;7.20;99.90
59075;DHT22;44860;53.020;6.738;2023-12-20T12:03:28;7.20;99.90
59075;DHT22;44860;53.020;6.738;2023-12-20T12:05:53;7.30;99.90
59075;DHT22;44860;53.020;6.738;2023-12-20T12:08:19;7.30;99.90
59075;DHT22;44860;53.020;6.738;2023-12-20T12:10:45;7.30;99.90
59075;DHT22;44860;53.020;6.738;2023-12-20T12:13:11;7.40;99.90
59075;DHT22;44860;53.020;6.738;2023-12-20T12:15:37;7.40;99.90
59075;DHT22;44860;53.020;6.738;2023-12-20T12:18:03;7.40;99.90
59075;DHT22;44860;53.020;6.738;2023-12-20T12:20:30;7.50;99.90
59075;DHT22;44860;53.020;6.738;2023-12-20T12:23:05;7.50;99.90
59075;DHT22;44860;53.020;6.738;2023-12-20T12:25:34;7.50;99.90
59075;DHT22;44860;53.020;6.738;2023-12-20T12:28:01;7.50;99.90
59075;DHT22;44860;53.020;6.738;2023-12-20T12:30:26;7.50;99.90
59075;DHT22;44860;53.020;6.738;2023-12-20T12:32:52;7.50;99.90
59075;DHT22;44860;53.020;6.738;2023-12-20T12:35:19;7.50;99.90
59075;DHT22;44860;53.020;6.738;2023-12-20T12:37:45;7.50;99.90
59075;DHT22;44860;53.020;6.738;2023-12-20T12:40:15;7.50;99.90
59075;DHT22;44860;53.020;6.738;2023-12-20T12:42:42;7.50;99.90
59075;DHT22;44860;53.020;6.738;2023-12-20T12:45:09;7.50;99.90
59075;DHT22;44860;53.020;6.738;2023-12-20T12:47:35;7.50;99.90
59075;DHT22;44860;53.020;6.738;2023-12-20T12:50:01;7.50;99.90
59075;DHT22;44860;53.020;6.738;2023-12-20T12:52:27;7.50;99.90
59075;DHT22;44860;53.020;6.738;2023-12-20T12:54:53;7.50;99.90
59075;DHT22;44860;53.020;6.738;2023-12-20T12:57:19;7.50;99.90
59075;DHT22;44860;53.020;6.738;2023-12-20T12:59:46;7.50;99.90
59075;DHT22;44860;53.020;6.738;2023-12-20T13:02:12;7.50;99.90
59075;DHT22;44860;53.020;6.738;2023-12-20T13:04:41;7.50;99.90
59075;DHT22;44860;53.020;6.738;2023-12-20T13:07:08;7.50;99.90
59075;DHT22;44860;53.020;6.738;2023-12-20T13:09:36;7.50;99.90
59075;DHT22;44860;53.020;6.738;2023-12-20T13:12:02;7.50;99.90
59075;DHT22;44860;53.020;6.738;2023-12-20T13:14:33;7.50;99.90
59075;DHT22;44860;53.020;6.738;2023-12-20T13:17:00;7.50;99.90
59075;DHT22;44860;53.020;6.738;2023-12-20T13:19:26;7.50;99.90
59075;DHT22;44860;53.020;6.738;2023-12-20T13:21:52;7.50;99.90
59075;DHT22;44860;53.020;6.738;2023-12-20T13:24:17;7.50;99.90
59075;DHT22;44860;53.020;6.738;2023-12-20T13:26:44;7.50;99.90
59075;DHT22;44860;53.020;6.738;2023-12-20T13:29:10;7.50;99.90
59075;DHT22;44860;53.020;6.738;2023-12-20T13:31:35;7.50;99.90
59075;DHT22;44860;53.020;6.738;2023-12-20T13:34:02;7.50;99.90
59075;DHT22;44860;53.020;6.738;2023-12-20T13:36:27;7.50;99.90
59075;DHT22;44860;53.020;6.738;2023-12-20T13:38:53;7.40;99.90
59075;DHT22;44860;53.020;6.738;2023-12-20T13:41:20;7.30;99.90
59075;DHT22;44860;53.020;6.738;2023-12-20T13:43:45;7.30;99.90
59075;DHT22;44860;53.020;6.738;2023-12-20T13:46:11;7.30;99.90
59075;DHT22;44860;53.020;6.738;2023-12-20T13:48:37;7.20;99.90
59075;DHT22;44860;53.020;6.738;2023-12-20T13:51:03;7.20;99.90
59075;DHT22;44860;53.020;6.738;2023-12-20T13:53:29;7.20;99.90
59075;DHT22;44860;53.020;6.738;2023-12-20T13:55:54;7.20;99.90
59075;DHT22;44860;53.020;6.738;2023-12-20T13:58:20;7.10;99.90
59075;DHT22;44860;53.020;6.738;2023-12-20T14:00:46;7.10;99.90
59075;DHT22;44860;53.020;6.738;2023-12-20T14:03:11;7.00;99.90
59075;DHT22;44860;53.020;6.738;2023-12-20T14:05:37;7.00;99.90
59075;DHT22;44860;53.020;6.738;2023-12-20T14:08:03;7.00;99.90
59075;DHT22;44860;53.020;6.738;2023-12-20T14:10:29;7.00;99.90
59075;DHT22;44860;53.020;6.738;2023-12-20T14:12:55;6.90;99.90
59075;DHT22;44860;53.020;6.738;2023-12-20T14:15:21;6.90;99.90
59075;DHT22;44860;53.020;6.738;2023-12-20T14:17:46;6.90;99.90
59075;DHT22;44860;53.020;6.738;2023-12-20T14:20:12;6.90;99.90
59075;DHT22;44860;53.020;6.738;2023-12-20T14:22:38;6.80;99.90
59075;DHT22;44860;53.020;6.738;2023-12-20T14:25:11;6.90;99.90
59075;DHT22;44860;53.020;6.738;2023-12-20T14:27:38;6.80;99.90
59075;DHT22;44860;53.020;6.738;2023-12-20T14:30:04;6.80;99.90
59075;DHT22;44860;53.020;6.738;2023-12-20T14:32:31;6.80;99.90
59075;DHT22;44860;53.020;6.738;2023-12-20T14:34:57;6.80;99.90
59075;DHT22;44860;53.020;6.738;2023-12-20T14:37:23;6.80;99.90
59075;DHT22;44860;53.020;6.738;2023-12-20T14:39:49;6.80;99.90
59075;DHT22;44860;53.020;6.738;2023-12-20T14:42:14;6.80;99.90
59075;DHT22;44860;53.020;6.738;2023-12-20T14:44:40;6.80;99.90
59075;DHT22;44860;53.020;6.738;2023-12-20T14:47:06;6.80;99.90
59075;DHT22;44860;53.020;6.738;2023-12-20T14:49:32;6.80;99.90
59075;DHT22;44860;53.020;6.738;2023-12-20T14:51:58;6.80;99.90
59075;DHT22;44860;53.020;6.738;2023-12-20T14:54:25;6.80;99.90
59075;DHT22;44860;53.020;6.738;2023-12-20T14:56:50;6.70;99.90
59075;DHT22;44860;53.020;6.738;2023-12-20T14:59:16;6.80;99.90
59075;DHT22;44860;53.020;6.738;2023-12-20T15:01:43;6.80;99.90
59075;DHT22;44860;53.020;6.738;2023-12-20T15:04:09;6.80;99.90
59075;DHT22;44860;53.020;6.738;2023-12-20T15:06:36;6.70;99.90
59075;DHT22;44860;53.020;6.738;2023-12-20T15:09:02;6.70;99.90
59075;DHT22;44860;53.020;6.738;2023-12-20T15:11:30;6.70;99.90
59075;DHT22;44860;53.020;6.738;2023-12-20T15:13:56;6.80;99.90
59075;DHT22;44860;53.020;6.738;2023-12-20T15:16:23;6.80;99.90
59075;DHT22;44860;53.020;6.738;2023-12-20T15:18:49;6.70;99.90
59075;DHT22;44860;53.020;6.738;2023-12-20T15:21:15;6.70;99.90
59075;DHT22;44860;53.020;6.738;2023-12-20T15:23:41;6.70;99.90
59075;DHT22;44860;53.020;6.738;2023-12-20T15:26:18;6.70;99.90
59075;DHT22;44860;53.020;6.738;2023-12-20T15:28:43;6.80;99.90
59075;DHT22;44860;53.020;6.738;2023-12-20T15:31:09;6.70;99.90
59075;DHT22;44860;53.020;6.738;2023-12-20T15:33:35;6.70;99.90
59075;DHT22;44860;53.020;6.738;2023-12-20T15:36:00;6.70;99.90
59075;DHT22;44860;53.020;6.738;2023-12-20T15:38:26;6.70;99.90
59075;DHT22;44860;53.020;6.738;2023-12-20T15:40:52;6.70;99.90
59075;DHT22;44860;53.020;6.738;2023-12-20T15:43:17;6.70;99.90
59075;DHT22;44860;53.020;6.738;2023-12-20T15:45:43;6.70;99.90
59075;DHT22;44860;53.020;6.738;2023-12-20T15:48:11;6.70;99.90
59075;DHT22;44860;53.020;6.738;2023-12-20T15:50:43;6.70;99.90
59075;DHT22;44860;53.020;6.738;2023-12-20T15:53:09;6.70;99.90
59075;DHT22;44860;53.020;6.738;2023-12-20T15:55:34;6.70;99.90